Terminal Aerodrome Forecast
Issued by NWS

Home | Current Version | Previous Version | Text Only | Print | Product List | Glossary On
Versions: 1 2 3 4 5 6 7 8 9 10 11 12 13 14 15 16 17 18 19 20 21 22 23 24 25 26 27 28 29 30 31 32 33 34 35 36 37 38
000
FTUS43 KDLH 221300 AAA
TAFHYR
TAF AMD
KHYR 221338Z 2214/2312 04004KT 2SM BR OVC003
     FM221500 00000KT P6SM OVC006
     FM221900 01004KT P6SM BKN015
     FM222000 01004KT P6SM SCT025
     FM230300 00000KT 5SM BR SCT015
     FM230700 00000KT 2SM BR OVC003=

USA.gov is the U.S. government's official web portal to all federal, state and local government web resources and services.